Time;durP1;ratioP1;P1;durP2;ratioP2;P2;SDS_P1;SDS_P2;PMS_P1;PMS_P2;Temp;Humidity;BMP_temperature;BMP_pressure;BME280_temperature;BME280_humidity;BME280_pressure;Samples;Min_cycle;Max_cycle;Signal;HPM_P1;HPM_P2
2022/10/12 00:30:08;;;;;;;1.02;0.70;;;5.60;99.90;;;;;;5375202;23;20384;-71
2022/10/12 00:32:34;;;;;;;0.77;0.60;;;5.80;99.90;;;;;;4933507;29;20074;-71
2022/10/12 00:35:00;;;;;;;0.73;0.50;;;5.80;99.90;;;;;;4915258;29;20478;-71
2022/10/12 00:37:26;;;;;;;0.90;0.50;;;5.60;99.90;;;;;;4917423;29;20066;-72
2022/10/12 00:39:51;;;;;;;0.50;0.33;;;5.80;99.90;;;;;;4917170;29;20118;-71
2022/10/12 00:42:19;;;;;;;0.70;0.50;;;5.60;99.90;;;;;;4917403;29;20342;-71
2022/10/12 00:44:48;;;;;;;0.60;0.40;;;5.80;99.90;;;;;;4916054;29;20051;-71
2022/10/12 00:47:23;;;;;;;0.90;0.52;;;5.70;99.90;;;;;;4919092;29;20138;-71
2022/10/12 00:50:13;;;;;;;0.57;0.50;;;5.70;99.90;;;;;;4918114;29;20043;-71
2022/10/12 00:52:45;;;;;;;0.63;0.60;;;5.80;99.90;;;;;;4902168;29;20565;-71
2022/10/12 00:55:16;;;;;;;1.30;0.75;;;5.60;99.90;;;;;;4915289;29;20048;-72
2022/10/12 00:57:42;;;;;;;0.90;0.68;;;5.80;99.90;;;;;;4902977;29;20118;-71
2022/10/12 01:00:09;;;;;;;0.82;0.60;;;5.70;99.90;;;;;;4915649;29;20050;-72
2022/10/12 01:02:37;;;;;;;1.58;0.65;;;5.80;99.90;;;;;;4919124;29;20402;-71
2022/10/12 01:05:04;;;;;;;1.05;0.55;;;5.60;99.90;;;;;;4900623;29;20118;-71
2022/10/12 01:07:30;;;;;;;1.17;0.60;;;5.80;99.90;;;;;;4929829;29;20047;-71
2022/10/12 01:09:55;;;;;;;1.17;0.77;;;5.70;99.90;;;;;;4919421;29;20095;-71
2022/10/12 01:12:22;;;;;;;0.97;0.70;;;5.60;99.90;;;;;;4920205;29;20098;-72
2022/10/12 01:14:48;;;;;;;1.17;0.60;;;5.60;99.90;;;;;;4929768;29;20728;-71
2022/10/12 01:17:44;;;;;;;0.90;0.60;;;5.60;99.90;;;;;;4918225;29;20055;-71
2022/10/12 01:20:35;;;;;;;0.93;0.63;;;5.50;99.90;;;;;;4917531;29;20134;-71
2022/10/12 01:23:42;;;;;;;0.98;0.50;;;5.50;99.90;;;;;;4921805;29;20050;-71
2022/10/12 01:26:39;;;;;;;1.85;0.77;;;5.40;99.90;;;;;;4918020;29;20048;-71
2022/10/12 01:29:26;;;;;;;0.73;0.50;;;5.60;99.90;;;;;;4925338;29;20499;-71
2022/10/12 01:31:56;;;;;;;1.58;0.70;;;5.60;99.90;;;;;;4905820;29;20067;-71
2022/10/12 01:34:51;;;;;;;0.60;0.50;;;5.40;99.90;;;;;;4898878;29;20399;-71
2022/10/12 01:37:36;;;;;;;0.95;0.52;;;5.40;99.90;;;;;;4897365;29;20083;-71
2022/10/12 01:40:07;;;;;;;0.73;0.50;;;5.30;99.90;;;;;;4896175;29;20056;-71
2022/10/12 01:42:38;;;;;;;0.43;0.30;;;5.50;99.90;;;;;;4896888;29;20047;-71
2022/10/12 01:45:09;;;;;;;0.80;0.40;;;5.50;99.90;;;;;;4898992;29;20048;-71
2022/10/12 01:47:37;;;;;;;0.40;0.30;;;5.20;99.90;;;;;;4897311;29;20048;-71
2022/10/12 01:50:06;;;;;;;0.43;0.40;;;5.50;99.90;;;;;;4897963;29;20080;-71
2022/10/12 01:53:13;;;;;;;0.45;0.45;;;5.40;99.90;;;;;;4895991;29;20065;-72
2022/10/12 01:55:48;;;;;;;0.50;0.40;;;5.40;99.90;;;;;;4892505;29;20053;-71
2022/10/12 01:58:16;;;;;;;0.40;0.40;;;5.40;99.90;;;;;;4904330;29;20145;-71
2022/10/12 02:01:06;;;;;;;0.50;0.50;;;5.50;99.90;;;;;;4898217;29;20562;-71
2022/10/12 02:04:10;;;;;;;1.00;0.52;;;5.40;99.90;;;;;;4910934;29;20407;-71
2022/10/12 02:06:44;;;;;;;0.50;0.45;;;5.50;99.90;;;;;;4885955;29;20052;-71
2022/10/12 02:09:23;;;;;;;0.47;0.47;;;5.50;99.90;;;;;;4897693;29;20048;-71
2022/10/12 02:11:52;;;;;;;0.40;0.30;;;5.60;99.90;;;;;;4892511;29;20052;-71
2022/10/12 02:14:22;;;;;;;0.95;0.50;;;5.50;99.90;;;;;;4896795;29;20353;-71
2022/10/12 02:16:58;;;;;;;1.00;0.60;;;5.50;99.90;;;;;;4895752;29;20047;-71
2022/10/12 02:19:27;;;;;;;0.47;0.40;;;5.70;99.90;;;;;;4897578;29;20048;-71
2022/10/12 02:21:58;;;;;;;0.85;0.50;;;5.50;99.90;;;;;;4896386;29;20383;-71
2022/10/12 02:24:24;;;;;;;0.60;0.60;;;5.50;99.90;;;;;;4900395;29;20067;-71
2022/10/12 02:26:52;;;;;;;0.52;0.43;;;5.80;99.90;;;;;;4899220;29;20151;-71
2022/10/12 02:29:30;;;;;;;0.70;0.40;;;5.70;99.90;;;;;;4898037;29;20122;-71
2022/10/12 02:32:18;;;;;;;0.70;0.40;;;5.80;99.90;;;;;;4897135;29;20052;-71
2022/10/12 02:35:04;;;;;;;0.52;0.40;;;5.90;99.90;;;;;;4895199;29;20055;-71
2022/10/12 02:37:45;;;;;;;0.45;0.40;;;5.90;99.90;;;;;;4895992;29;20150;-71
2022/10/12 02:40:24;;;;;;;1.38;0.68;;;5.80;99.90;;;;;;4895870;29;20392;-71
2022/10/12 02:42:53;;;;;;;0.75;0.60;;;6.10;99.90;;;;;;4896877;29;20044;-71
2022/10/12 02:45:21;;;;;;;0.63;0.40;;;6.00;99.90;;;;;;4880392;29;20534;-71
2022/10/12 02:47:49;;;;;;;0.32;0.30;;;5.90;99.90;;;;;;4896316;29;20048;-71
2022/10/12 02:50:17;;;;;;;0.68;0.40;;;6.20;99.90;;;;;;4895173;29;20205;-71
2022/10/12 02:52:43;;;;;;;0.40;0.40;;;5.90;99.90;;;;;;4898282;29;20040;-71
2022/10/12 02:55:10;;;;;;;0.60;0.43;;;5.90;99.90;;;;;;4896735;29;20550;-71
2022/10/12 02:57:35;;;;;;;0.80;0.40;;;6.10;99.90;;;;;;4895507;29;20063;-71
2022/10/12 03:00:01;;;;;;;0.47;0.47;;;6.30;99.90;;;;;;4897402;29;20047;-71
2022/10/12 03:02:26;;;;;;;0.30;0.30;;;6.10;99.90;;;;;;4896578;29;20347;-71
2022/10/12 03:04:52;;;;;;;0.30;0.30;;;6.20;99.90;;;;;;4897497;29;20103;-71
2022/10/12 03:07:18;;;;;;;0.57;0.50;;;6.00;99.90;;;;;;4900084;29;20307;-71
2022/10/12 03:09:43;;;;;;;0.20;0.20;;;6.10;99.90;;;;;;4916570;29;20343;-71
2022/10/12 03:12:09;;;;;;;0.22;0.20;;;6.20;99.90;;;;;;4901177;29;20456;-71
2022/10/12 03:14:36;;;;;;;0.32;0.30;;;5.80;99.90;;;;;;4871753;29;20484;-71
2022/10/12 03:17:03;;;;;;;0.50;0.40;;;5.90;99.90;;;;;;4897289;29;20059;-71
2022/10/12 03:19:28;;;;;;;0.65;0.40;;;6.00;99.90;;;;;;4880466;29;20138;-71
2022/10/12 03:21:54;;;;;;;0.60;0.40;;;5.90;99.90;;;;;;4881958;29;20570;-71
2022/10/12 03:24:19;;;;;;;0.70;0.40;;;5.90;99.90;;;;;;4914768;29;20047;-72
2022/10/12 03:26:46;;;;;;;0.47;0.40;;;5.80;99.90;;;;;;4916229;29;20150;-71
2022/10/12 03:29:11;;;;;;;0.50;0.32;;;6.00;99.90;;;;;;4916294;29;20586;-71
2022/10/12 03:31:37;;;;;;;1.10;0.50;;;5.70;99.90;;;;;;4907362;29;20099;-72
2022/10/12 03:34:03;;;;;;;0.68;0.38;;;5.70;99.90;;;;;;4883902;29;20858;-71
2022/10/12 03:36:28;;;;;;;0.50;0.40;;;6.00;99.90;;;;;;4896672;29;20047;-71
2022/10/12 03:38:54;;;;;;;0.45;0.30;;;5.70;99.90;;;;;;4896622;29;20048;-72
2022/10/12 03:41:20;;;;;;;0.43;0.40;;;5.70;99.90;;;;;;4897341;29;20051;-71
2022/10/12 03:43:45;;;;;;;0.50;0.40;;;5.60;99.90;;;;;;4901991;29;20304;-71
2022/10/12 03:46:11;;;;;;;0.50;0.43;;;5.90;99.90;;;;;;4893423;29;20304;-71
2022/10/12 03:48:37;;;;;;;0.70;0.50;;;5.90;99.90;;;;;;4897100;29;20103;-71
2022/10/12 03:51:02;;;;;;;0.60;0.50;;;5.80;99.90;;;;;;4893975;29;20071;-71
2022/10/12 03:53:28;;;;;;;0.73;0.40;;;5.90;99.90;;;;;;4895325;29;20119;-72
2022/10/12 03:55:54;;;;;;;0.40;0.40;;;5.80;99.90;;;;;;4896957;29;20092;-71
2022/10/12 03:58:19;;;;;;;0.55;0.50;;;5.80;99.90;;;;;;4894252;29;20094;-72
2022/10/12 04:00:45;;;;;;;0.30;0.30;;;5.80;99.90;;;;;;4879739;29;20036;-71
2022/10/12 04:03:11;;;;;;;0.77;0.57;;;5.80;99.90;;;;;;4904281;29;20055;-71
2022/10/12 04:05:37;;;;;;;0.45;0.30;;;5.80;99.90;;;;;;4903429;29;20105;-72
2022/10/12 04:08:03;;;;;;;1.02;0.45;;;6.10;99.90;;;;;;4887597;29;20080;-72
2022/10/12 04:10:29;;;;;;;0.60;0.40;;;5.80;99.90;;;;;;4900067;29;20074;-72
2022/10/12 04:12:56;;;;;;;0.40;0.40;;;5.80;99.90;;;;;;4898764;29;20143;-71
2022/10/12 04:15:21;;;;;;;0.70;0.40;;;6.10;99.90;;;;;;4900752;29;20080;-71
2022/10/12 04:17:47;;;;;;;0.65;0.50;;;5.80;99.90;;;;;;4919820;29;20055;-71
2022/10/12 04:20:13;;;;;;;0.30;0.30;;;6.00;99.90;;;;;;4886909;29;20550;-71
2022/10/12 04:22:39;;;;;;;0.45;0.38;;;6.10;99.90;;;;;;4860141;29;20111;-71
2022/10/12 04:25:05;;;;;;;1.08;0.35;;;6.10;99.90;;;;;;4895660;29;20154;-72
2022/10/12 04:27:30;;;;;;;0.52;0.40;;;5.80;99.90;;;;;;4896934;29;20519;-71
2022/10/12 04:29:56;;;;;;;0.52;0.35;;;6.00;99.90;;;;;;4896935;29;20044;-71
2022/10/12 04:32:22;;;;;;;0.60;0.30;;;6.00;99.90;;;;;;4893863;29;20499;-71
2022/10/12 04:34:47;;;;;;;0.57;0.30;;;5.70;99.90;;;;;;4862408;29;20052;-71
2022/10/12 04:37:13;;;;;;;0.60;0.40;;;6.00;99.90;;;;;;4892671;29;20036;-71
2022/10/12 04:39:38;;;;;;;0.30;0.30;;;5.80;99.90;;;;;;4895467;29;20542;-72
2022/10/12 04:42:05;;;;;;;0.47;0.30;;;5.90;99.90;;;;;;4918086;29;20055;-72
2022/10/12 04:44:32;;;;;;;1.42;0.40;;;5.80;99.90;;;;;;4900362;29;20063;-72
2022/10/12 04:46:58;;;;;;;0.60;0.50;;;5.90;99.90;;;;;;4900090;29;20411;-71
2022/10/12 04:49:23;;;;;;;0.70;0.50;;;5.80;99.90;;;;;;4884441;29;20052;-71
2022/10/12 04:51:49;;;;;;;0.77;0.50;;;5.60;99.90;;;;;;4900094;29;20051;-71
2022/10/12 04:54:15;;;;;;;0.60;0.43;;;5.70;99.90;;;;;;4879841;29;20048;-72
2022/10/12 04:56:40;;;;;;;0.65;0.35;;;5.90;99.90;;;;;;4918541;29;20048;-72
2022/10/12 04:59:07;;;;;;;0.60;0.45;;;5.80;99.90;;;;;;4918964;29;20044;-72
2022/10/12 05:01:32;;;;;;;;;;;5.60;99.90;;;;;;4879149;29;20424;-72
2022/10/12 05:03:59;;;;;;;0.30;0.20;;;5.70;99.90;;;;;;4897447;29;19930;-72
2022/10/12 05:06:25;;;;;;;;;;;5.80;99.90;;;;;;4892021;29;20051;-71
2022/10/12 05:08:50;;;;;;;0.45;0.30;;;5.60;99.90;;;;;;4893588;29;20579;-72
2022/10/12 05:11:16;;;;;;;0.93;0.50;;;5.60;99.90;;;;;;4861897;29;20258;-72
2022/10/12 05:13:42;;;;;;;0.65;0.50;;;5.50;99.90;;;;;;4892396;29;20055;-71
2022/10/12 05:16:07;;;;;;;0.55;0.50;;;5.60;99.90;;;;;;4875314;29;20512;-71
2022/10/12 05:18:33;;;;;;;0.40;0.30;;;5.50;99.90;;;;;;4891270;29;20052;-72
2022/10/12 05:20:59;;;;;;;1.00;0.60;;;5.40;99.90;;;;;;4893390;29;20131;-72
2022/10/12 05:23:24;;;;;;;0.60;0.50;;;5.40;99.90;;;;;;4891921;29;20129;-72
2022/10/12 05:25:50;;;;;;;0.57;0.40;;;5.40;99.90;;;;;;4891885;29;20119;-71
2022/10/12 05:28:15;;;;;;;0.50;0.40;;;5.70;99.90;;;;;;4888027;29;20048;-72
2022/10/12 05:30:41;;;;;;;0.60;0.50;;;5.60;99.90;;;;;;4899264;29;20304;-72
2022/10/12 05:33:07;;;;;;;0.73;0.47;;;5.50;99.90;;;;;;4907378;29;20288;-72
2022/10/12 05:35:32;;;;;;;0.80;0.60;;;5.40;99.90;;;;;;4903576;29;20288;-71
2022/10/12 05:37:58;;;;;;;1.30;0.50;;;5.50;99.90;;;;;;4883247;29;20052;-71
2022/10/12 05:40:24;;;;;;;0.90;0.50;;;5.40;99.90;;;;;;4897135;29;20296;-72
2022/10/12 05:42:50;;;;;;;0.90;0.70;;;5.50;99.90;;;;;;4883246;29;20075;-72
2022/10/12 05:45:15;;;;;;;0.40;0.30;;;5.40;99.90;;;;;;4899042;29;20055;-71
2022/10/12 05:47:41;;;;;;;0.85;0.43;;;5.70;99.90;;;;;;4898873;29;20048;-72
2022/10/12 05:50:07;;;;;;;0.82;0.50;;;5.60;99.90;;;;;;4898732;29;20194;-72
2022/10/12 05:52:33;;;;;;;2.58;0.70;;;5.70;99.90;;;;;;4883519;29;20428;-72
2022/10/12 05:54:58;;;;;;;0.40;0.38;;;5.60;99.90;;;;;;4882296;29;20542;-72
2022/10/12 05:57:24;;;;;;;0.77;0.50;;;5.80;99.90;;;;;;4895402;29;20095;-72
2022/10/12 05:59:50;;;;;;;0.30;0.30;;;5.70;99.90;;;;;;4885976;29;20046;-72
2022/10/12 06:02:16;;;;;;;0.90;0.40;;;5.80;99.90;;;;;;4899551;29;20039;-72
2022/10/12 06:04:42;;;;;;;;;;;5.50;99.90;;;;;;4911057;29;20775;-72
2022/10/12 06:07:08;;;;;;;0.22;0.22;;;5.60;99.90;;;;;;4898869;29;19967;-72
2022/10/12 06:09:34;;;;;;;0.50;0.40;;;5.50;99.90;;;;;;4898407;29;20555;-72
2022/10/12 06:12:00;;;;;;;0.43;0.40;;;5.50;99.90;;;;;;4898377;29;20067;-72
2022/10/12 06:14:25;;;;;;;0.13;0.13;;;5.70;99.90;;;;;;4898395;29;20083;-72
2022/10/12 06:16:51;;;;;;;0.50;0.35;;;5.70;99.90;;;;;;4882943;29;20299;-72
2022/10/12 06:19:17;;;;;;;0.50;0.32;;;5.40;99.90;;;;;;4883040;29;20052;-72
2022/10/12 06:21:42;;;;;;;1.92;0.50;;;5.80;99.90;;;;;;4898349;29;20106;-72
2022/10/12 06:24:08;;;;;;;1.05;0.60;;;5.80;99.90;;;;;;4897344;29;20055;-74
2022/10/12 06:26:34;;;;;;;1.08;0.60;;;5.50;99.90;;;;;;4882628;29;20044;-71
2022/10/12 06:28:59;;;;;;;1.75;0.70;;;5.60;99.90;;;;;;4898076;29;20052;-72
2022/10/12 06:31:26;;;;;;;2.22;0.80;;;5.60;99.90;;;;;;4915230;29;20063;-72
2022/10/12 06:33:52;;;;;;;1.30;0.70;;;5.90;99.90;;;;;;4897677;29;20135;-72
2022/10/12 06:36:19;;;;;;;1.67;0.82;;;6.10;99.90;;;;;;4898121;29;20051;-71
2022/10/12 06:38:44;;;;;;;1.17;0.70;;;5.90;99.90;;;;;;4898288;29;20395;-72
2022/10/12 06:41:10;;;;;;;0.60;0.50;;;6.10;99.90;;;;;;4898080;29;20048;-72
2022/10/12 06:43:36;;;;;;;1.08;0.60;;;6.00;99.90;;;;;;4897996;29;20480;-72
2022/10/12 06:46:02;;;;;;;1.55;0.80;;;5.90;99.90;;;;;;4898173;29;20048;-72
2022/10/12 06:48:28;;;;;;;1.70;0.95;;;6.10;99.90;;;;;;4897877;29;20512;-72
2022/10/12 06:50:54;;;;;;;1.80;0.80;;;6.00;99.90;;;;;;4897752;29;20125;-71
2022/10/12 06:53:21;;;;;;;1.65;0.80;;;6.10;99.90;;;;;;4898085;29;20154;-72
2022/10/12 06:55:46;;;;;;;;;;;6.40;99.90;;;;;;4898433;29;20052;-72
2022/10/12 06:58:12;;;;;;;0.90;0.60;;;6.40;99.90;;;;;;4897727;29;19919;-72
2022/10/12 07:00:38;;;;;;;1.42;0.80;;;6.50;99.90;;;;;;4898210;29;20483;-72
2022/10/12 07:03:03;;;;;;;1.35;0.70;;;6.70;99.90;;;;;;4902456;29;20047;-71
2022/10/12 07:05:29;;;;;;;1.35;0.70;;;6.90;99.90;;;;;;4900948;29;20490;-72
2022/10/12 07:07:55;;;;;;;1.00;0.60;;;6.90;99.90;;;;;;4916449;29;20043;-72
2022/10/12 07:10:21;;;;;;;1.27;0.60;;;6.70;99.90;;;;;;4916874;29;20094;-72
2022/10/12 07:12:47;;;;;;;0.63;0.57;;;6.80;99.90;;;;;;4884735;29;20424;-73
2022/10/12 07:15:12;;;;;;;1.27;0.80;;;7.10;99.90;;;;;;4897725;29;20091;-71
2022/10/12 07:17:38;;;;;;;2.40;0.83;;;7.20;99.90;;;;;;4897774;29;20056;-72
2022/10/12 07:20:05;;;;;;;1.10;0.70;;;7.10;99.90;;;;;;4897508;29;20299;-73
2022/10/12 07:22:31;;;;;;;1.42;0.73;;;7.20;99.90;;;;;;4897456;29;20511;-72
2022/10/12 07:24:57;;;;;;;;;;;7.20;99.90;;;;;;4882284;29;20052;-72
2022/10/12 07:27:23;;;;;;;0.90;0.75;;;7.60;99.90;;;;;;4865961;29;19943;-72
2022/10/12 07:29:48;;;;;;;1.48;0.90;;;7.80;99.90;;;;;;4896832;29;20511;-73
2022/10/12 07:32:14;;;;;;;1.77;1.00;;;7.60;99.90;;;;;;4881177;29;20056;-72
2022/10/12 07:34:41;;;;;;;1.55;1.02;;;8.20;99.90;;;;;;4907731;29;20084;-72
2022/10/12 07:37:06;;;;;;;2.15;1.00;;;8.40;99.90;;;;;;4897082;29;20055;-71
2022/10/12 07:39:32;;;;;;;1.70;1.02;;;8.50;99.90;;;;;;4881736;29;20492;-72
2022/10/12 07:41:58;;;;;;;1.85;1.15;;;8.30;99.90;;;;;;4897198;29;20587;-72
2022/10/12 07:44:24;;;;;;;1.98;0.90;;;8.80;99.90;;;;;;4897484;29;20135;-71
2022/10/12 07:46:50;;;;;;;1.25;0.82;;;8.80;99.90;;;;;;4881746;29;20467;-72
2022/10/12 07:49:16;;;;;;;2.28;0.90;;;8.90;99.90;;;;;;4892569;29;20126;-72
2022/10/12 07:51:42;;;;;;;2.85;1.05;;;9.30;99.90;;;;;;4908615;29;20119;-72
2022/10/12 07:54:08;;;;;;;1.92;1.05;;;9.50;99.90;;;;;;4897084;29;20108;-72
2022/10/12 07:56:34;;;;;;;2.85;1.48;;;9.30;99.90;;;;;;4880647;29;20055;-72
2022/10/12 07:59:00;;;;;;;2.75;1.10;;;9.30;99.90;;;;;;4912421;29;20050;-72
2022/10/12 08:01:31;;;;;;;1.58;0.98;;;9.60;99.90;;;;;;4896668;29;20040;-72
2022/10/12 08:03:58;;;;;;;2.05;1.00;;;9.60;99.90;;;;;;4897113;29;20051;-72
2022/10/12 08:06:27;;;;;;;2.05;1.08;;;9.50;99.90;;;;;;4901102;29;20048;-72
2022/10/12 08:08:53;;;;;;;1.88;1.02;;;9.40;99.90;;;;;;4881378;29;20070;-72
2022/10/12 08:11:19;;;;;;;;;;;9.60;99.90;;;;;;4896788;29;20040;-72
2022/10/12 08:13:45;;;;;;;2.88;1.40;;;9.70;99.90;;;;;;4897100;29;19923;-71
2022/10/12 08:16:13;;;;;;;2.47;1.17;;;9.70;99.90;;;;;;4881504;29;20064;-72
2022/10/12 08:18:39;;;;;;;1.88;1.05;;;9.80;99.90;;;;;;4896622;29;20051;-72
2022/10/12 08:21:10;;;;;;;1.40;1.00;;;9.70;99.90;;;;;;4896637;29;20055;-71
2022/10/12 08:23:36;;;;;;;1.98;1.00;;;10.00;99.90;;;;;;4902127;29;20564;-72
2022/10/12 08:26:03;;;;;;;3.08;1.02;;;10.00;99.90;;;;;;4906242;29;20127;-72
2022/10/12 08:28:29;;;;;;;2.20;1.00;;;10.10;99.90;;;;;;4896638;29;20044;-72
2022/10/12 08:30:54;;;;;;;1.65;1.13;;;10.40;99.90;;;;;;4880793;29;20043;-72
2022/10/12 08:33:20;;;;;;;1.75;1.00;;;10.40;99.90;;;;;;4882883;29;20130;-72
2022/10/12 08:35:47;;;;;;;1.58;0.98;;;10.60;99.90;;;;;;4896572;29;20562;-72
2022/10/12 08:38:13;;;;;;;1.73;0.88;;;10.70;99.90;;;;;;4896681;29;20456;-72
2022/10/12 08:40:43;;;;;;;1.95;1.00;;;10.80;99.90;;;;;;4897076;29;20107;-72
2022/10/12 08:43:14;;;;;;;2.22;1.13;;;10.70;99.90;;;;;;4894514;29;20104;-72
2022/10/12 08:45:51;;;;;;;2.40;1.40;;;10.70;99.90;;;;;;4896867;29;20107;-72
2022/10/12 08:49:06;;;;;;;2.42;1.23;;;10.70;99.90;;;;;;4915461;29;20044;-71
2022/10/12 08:51:51;;;;;;;1.58;1.08;;;10.70;99.90;;;;;;4888741;29;20114;-72
2022/10/12 08:54:21;;;;;;;1.67;1.10;;;10.80;99.90;;;;;;4899681;29;20051;-72
2022/10/12 08:56:48;;;;;;;1.60;1.10;;;10.60;99.90;;;;;;4896908;29;20056;-71
2022/10/12 08:59:16;;;;;;;1.45;1.02;;;10.60;99.90;;;;;;4883246;29;20051;-72
2022/10/12 09:01:57;;;;;;;1.90;1.40;;;10.60;99.90;;;;;;4897946;29;20091;-71
2022/10/12 09:04:55;;;;;;;2.92;1.73;;;10.60;99.90;;;;;;4898144;29;20149;-71
2022/10/12 09:07:21;;;;;;;2.03;1.30;;;10.70;99.90;;;;;;4898746;29;20099;-71
2022/10/12 09:10:21;;;;;;;3.15;1.55;;;10.70;99.90;;;;;;4898343;29;20080;-71
2022/10/12 09:13:09;;;;;;;2.05;1.40;;;10.70;99.90;;;;;;4899421;29;20404;-71
2022/10/12 09:15:51;;;;;;;3.15;1.80;;;10.80;99.90;;;;;;4899583;29;20152;-71
2022/10/12 09:18:33;;;;;;;1.85;1.25;;;10.90;99.90;;;;;;4883989;29;20056;-71
2022/10/12 09:20:59;;;;;;;3.38;1.60;;;10.80;99.90;;;;;;4883769;29;20178;-71
2022/10/12 09:23:46;;;;;;;1.80;1.17;;;10.80;99.90;;;;;;4883633;29;20043;-71
2022/10/12 09:26:18;;;;;;;2.95;1.40;;;10.90;99.90;;;;;;4883674;29;20054;-70
2022/10/12 09:28:49;;;;;;;2.90;1.63;;;11.00;99.90;;;;;;4899336;29;20465;-71
2022/10/12 09:31:37;;;;;;;2.67;1.40;;;11.10;99.90;;;;;;4895430;29;20148;-71
2022/10/12 09:34:05;;;;;;;3.35;1.67;;;11.20;99.90;;;;;;4898722;29;20107;-71
2022/10/12 09:36:35;;;;;;;2.42;1.70;;;11.20;99.90;;;;;;4891554;29;20040;-72
2022/10/12 09:39:16;;;;;;;4.78;1.80;;;11.40;99.90;;;;;;4882691;29;20075;-72
2022/10/12 09:41:44;;;;;;;2.03;1.35;;;11.50;99.90;;;;;;4891025;29;20048;-71
2022/10/12 09:44:32;;;;;;;1.75;1.13;;;11.50;99.90;;;;;;4889156;29;20456;-72
2022/10/12 09:47:00;;;;;;;3.70;1.50;;;11.60;99.90;;;;;;4908474;29;20150;-71
2022/10/12 09:49:49;;;;;;;3.28;1.40;;;11.70;99.90;;;;;;4890973;29;20580;-72
2022/10/12 09:52:20;;;;;;;1.75;1.10;;;11.70;99.90;;;;;;4923692;29;20056;-72
2022/10/12 09:54:56;;;;;;;2.55;1.27;;;11.80;99.90;;;;;;4894345;29;20052;-72
2022/10/12 09:57:27;;;;;;;3.58;1.40;;;11.90;99.90;;;;;;4898798;29;20115;-72
2022/10/12 09:59:53;;;;;;;2.70;1.27;;;12.00;99.90;;;;;;4898678;29;20051;-72
2022/10/12 10:02:21;;;;;;;2.75;1.15;;;12.10;99.90;;;;;;4867821;29;20514;-72
2022/10/12 10:04:48;;;;;;;2.75;1.23;;;12.20;99.90;;;;;;4879853;29;20055;-71
2022/10/12 10:07:34;;;;;;;2.53;1.25;;;12.20;99.90;;;;;;4882833;29;20143;-72
2022/10/12 10:10:07;;;;;;;3.15;1.20;;;12.40;99.90;;;;;;4898704;29;20108;-72
2022/10/12 10:12:41;;;;;;;3.05;1.10;;;12.40;99.90;;;;;;4898602;29;20048;-72
2022/10/12 10:15:26;;;;;;;3.42;1.05;;;12.50;99.90;;;;;;4882698;29;20084;-72
2022/10/12 10:18:21;;;;;;;2.83;1.20;;;12.60;99.90;;;;;;4898730;29;20043;-72
2022/10/12 10:20:58;;;;;;;2.95;1.27;;;12.70;99.90;;;;;;4905724;29;20483;-72
2022/10/12 10:23:27;;;;;;;2.78;1.10;;;12.80;99.90;;;;;;4883311;29;20052;-72
2022/10/12 10:26:02;;;;;;;2.20;0.85;;;13.00;99.90;;;;;;4898124;29;20052;-72
2022/10/12 10:28:33;;;;;;;1.95;0.98;;;13.20;99.90;;;;;;4898122;29;20059;-72
2022/10/12 10:31:01;;;;;;;1.33;0.70;;;13.30;99.90;;;;;;4881804;29;20087;-72
2022/10/12 10:34:16;;;;;;;2.88;0.80;;;13.50;99.90;;;;;;4915009;29;20444;-72
2022/10/12 10:37:03;;;;;;;2.20;0.80;;;13.80;99.90;;;;;;4909025;29;20503;-72
2022/10/12 10:39:49;;;;;;;;;;;14.20;99.90;;;;;;4907308;29;20047;-72
2022/10/12 10:42:34;;;;;;;2.08;0.80;;;14.40;99.90;;;;;;4910159;29;19918;-72
2022/10/12 10:45:32;;;;;;;2.78;0.98;;;14.70;99.90;;;;;;4915164;29;20063;-72
2022/10/12 10:48:23;;;;;;;2.25;1.10;;;15.00;99.90;;;;;;4913445;29;20043;-72
2022/10/12 10:51:01;;;;;;;4.03;1.27;;;15.20;99.90;;;;;;4896629;29;20510;-71
2022/10/12 10:53:43;;;;;;;1.90;0.90;;;15.30;99.90;;;;;;4872815;29;20059;-72
2022/10/12 10:56:30;;;;;;;2.45;0.80;;;15.60;99.90;;;;;;4896108;29;20071;-72
2022/10/12 10:59:02;;;;;;;3.15;1.25;;;15.80;99.90;;;;;;4897034;29;20052;-72
2022/10/12 11:01:44;;;;;;;4.47;1.30;;;16.00;99.90;;;;;;4877195;29;20059;-72
2022/10/12 11:04:19;;;;;;;2.70;1.00;;;16.10;99.90;;;;;;4895624;29;20047;-73
2022/10/12 11:06:53;;;;;;;2.15;0.90;;;16.30;99.90;;;;;;4897467;29;20062;-73
2022/10/12 11:09:30;;;;;;;3.47;1.00;;;16.40;99.90;;;;;;4892843;29;20051;-72
2022/10/12 11:12:07;;;;;;;2.38;0.98;;;16.60;99.90;;;;;;4881283;29;20322;-73
2022/10/12 11:14:42;;;;;;;2.17;0.80;;;16.70;99.90;;;;;;4912278;29;20139;-73
2022/10/12 11:17:15;;;;;;;2.35;0.80;;;16.80;99.70;;;;;;4893002;29;20143;-73
2022/10/12 11:19:49;;;;;;;4.25;1.00;;;16.80;99.80;;;;;;4890508;29;20052;-73
2022/10/12 11:22:20;;;;;;;3.58;1.33;;;16.80;98.50;;;;;;4894580;29;20048;-72
2022/10/12 11:25:04;;;;;;;2.38;0.80;;;16.90;99.00;;;;;;4896079;29;20048;-73
2022/10/12 11:27:39;;;;;;;4.57;1.10;;;16.90;99.40;;;;;;4884441;29;20048;-72
2022/10/12 11:30:17;;;;;;;4.07;1.02;;;17.10;98.40;;;;;;4893025;29;20047;-73
2022/10/12 11:33:03;;;;;;;1.45;0.68;;;17.10;98.00;;;;;;4887281;29;20082;-73
2022/10/12 11:35:36;;;;;;;2.15;0.70;;;17.30;97.80;;;;;;4887399;29;20060;-72
2022/10/12 11:38:20;;;;;;;2.35;0.82;;;17.40;96.30;;;;;;4872493;29;20041;-72
2022/10/12 11:40:48;;;;;;;2.92;0.60;;;17.40;95.90;;;;;;4888386;29;20068;-73
2022/10/12 11:43:21;;;;;;;1.38;0.50;;;17.60;96.50;;;;;;4891825;29;20472;-72
2022/10/12 11:45:51;;;;;;;2.08;0.63;;;17.80;97.70;;;;;;4891833;29;20498;-73
2022/10/12 11:48:53;;;;;;;2.08;0.70;;;17.80;96.40;;;;;;4877082;29;20136;-73
2022/10/12 11:51:18;;;;;;;2.70;0.85;;;17.80;96.00;;;;;;4891943;29;20107;-72
2022/10/12 11:54:13;;;;;;;;;;;17.70;95.40;;;;;;4892029;29;20485;-72
2022/10/12 11:56:50;;;;;;;2.45;0.85;;;18.00;97.00;;;;;;4886065;29;19923;-73
2022/10/12 11:59:39;;;;;;;2.63;1.00;;;18.10;96.20;;;;;;4892733;29;20053;-72
2022/10/12 12:02:23;;;;;;;1.65;0.75;;;18.10;95.10;;;;;;4893392;29;20061;-72
2022/10/12 12:04:49;;;;;;;2.75;0.98;;;18.20;95.60;;;;;;4888216;29;20048;-72
2022/10/12 12:07:33;;;;;;;;;;;18.20;95.80;;;;;;4909393;29;20044;-72
2022/10/12 12:09:59;;;;;;;2.83;0.77;;;18.30;95.80;;;;;;4893137;29;19923;-72
2022/10/12 12:12:26;;;;;;;;;;;18.50;94.90;;;;;;4891599;29;20041;-72
2022/10/12 12:14:59;;;;;;;2.17;0.68;;;18.40;94.20;;;;;;4892158;29;20042;-72
2022/10/12 12:17:27;;;;;;;2.10;0.80;;;18.60;95.30;;;;;;4892626;29;20052;-72
2022/10/12 12:19:55;;;;;;;1.65;0.65;;;18.60;94.40;;;;;;4881530;29;20487;-72
2022/10/12 12:22:42;;;;;;;2.08;0.70;;;18.50;94.00;;;;;;4889493;29;20052;-72
2022/10/12 12:25:09;;;;;;;2.38;0.70;;;18.40;93.90;;;;;;4880188;29;20060;-72
2022/10/12 12:28:04;;;;;;;1.50;0.70;;;18.40;94.50;;;;;;4895338;29;20049;-72
2022/10/12 12:30:34;;;;;;;2.92;0.90;;;18.60;95.00;;;;;;4873596;29;20519;-72
2022/10/12 12:33:14;;;;;;;2.55;0.90;;;18.70;94.40;;;;;;4895770;29;20752;-72
2022/10/12 12:35:57;;;;;;;1.70;0.80;;;18.70;94.20;;;;;;4893392;29;20057;-72
2022/10/12 12:38:27;;;;;;;2.00;0.75;;;18.80;94.60;;;;;;4904530;29;20468;-72
2022/10/12 12:40:59;;;;;;;1.20;0.70;;;19.00;94.20;;;;;;4900028;29;20124;-72
2022/10/12 12:43:27;;;;;;;1.67;0.70;;;18.80;93.40;;;;;;4906491;29;20047;-72
2022/10/12 12:45:57;;;;;;;1.90;0.68;;;18.80;93.70;;;;;;4895751;29;20040;-72
2022/10/12 12:48:38;;;;;;;1.40;0.65;;;18.90;93.80;;;;;;4893371;29;20032;-74
2022/10/12 12:51:23;;;;;;;1.17;0.55;;;18.80;93.40;;;;;;4872133;29;20101;-72
2022/10/12 12:53:51;;;;;;;2.53;0.80;;;18.80;93.60;;;;;;4891056;29;20061;-72
2022/10/12 12:56:32;;;;;;;1.10;0.60;;;18.90;93.90;;;;;;4896245;29;20041;-72
2022/10/12 12:59:26;;;;;;;2.13;0.93;;;18.90;93.80;;;;;;4890071;29;20453;-72
2022/10/12 13:02:04;;;;;;;2.90;0.70;;;18.90;93.40;;;;;;4883882;29;20499;-72
2022/10/12 13:04:54;;;;;;;2.28;0.80;;;19.20;93.60;;;;;;4890291;29;20052;-72
2022/10/12 13:07:53;;;;;;;1.00;0.50;;;19.30;93.90;;;;;;4895834;29;20469;-72
2022/10/12 13:10:37;;;;;;;1.55;0.60;;;19.30;93.50;;;;;;4901313;29;20079;-72
2022/10/12 13:13:32;;;;;;;2.50;0.88;;;19.30;93.10;;;;;;4894998;29;20056;-72
2022/10/12 13:16:39;;;;;;;3.58;1.10;;;19.00;92.70;;;;;;4891051;29;20119;-72
2022/10/12 13:19:14;;;;;;;1.77;0.70;;;18.70;93.00;;;;;;4840101;29;20071;-71
2022/10/12 13:21:49;;;;;;;1.92;0.80;;;18.90;93.70;;;;;;4857326;29;20477;-72
2022/10/12 13:24:40;;;;;;;1.27;0.68;;;19.00;93.00;;;;;;4894846;29;20049;-73
2022/10/12 13:27:34;;;;;;;2.22;0.70;;;18.90;94.40;;;;;;4898836;29;20047;-72
2022/10/12 13:30:18;;;;;;;1.27;0.60;;;18.80;93.30;;;;;;4892292;29;20153;-72
2022/10/12 13:33:10;;;;;;;1.80;0.65;;;18.80;93.50;;;;;;4884106;29;20051;-72
2022/10/12 13:35:46;;;;;;;3.38;1.00;;;18.70;93.40;;;;;;4895227;29;20463;-72
2022/10/12 13:38:14;;;;;;;2.15;0.70;;;18.40;93.60;;;;;;4897122;29;20044;-72
2022/10/12 13:40:50;;;;;;;1.92;0.90;;;18.60;94.20;;;;;;4893462;29;20048;-72
2022/10/12 13:43:21;;;;;;;2.13;0.80;;;18.70;94.80;;;;;;4896737;29;20139;-73
2022/10/12 13:45:48;;;;;;;1.65;0.90;;;18.80;93.80;;;;;;4896702;29;20048;-72
2022/10/12 13:48:20;;;;;;;2.03;0.55;;;18.80;94.10;;;;;;4897305;29;20687;-72
2022/10/12 13:50:51;;;;;;;3.35;0.95;;;18.90;93.40;;;;;;4897017;29;20407;-72